sensor_id;sensor_type;location;lat;lon;timestamp;pressure;altitude;pressure_sealevel;temperature;humidity
16834;BME280;8533;48.426;10.868;2024-01-27T00:00:16;97661.41;;;1.54;100.00
16834;BME280;8533;48.426;10.868;2024-01-27T00:02:42;97487.78;;;0.42;100.00
16834;BME280;8533;48.426;10.868;2024-01-27T00:05:08;97694.25;;;1.70;100.00
16834;BME280;8533;48.426;10.868;2024-01-27T00:07:33;97661.78;;;1.41;100.00
16834;BME280;8533;48.426;10.868;2024-01-27T00:09:58;97704.78;;;1.59;100.00
16834;BME280;8533;48.426;10.868;2024-01-27T00:12:25;97712.97;;;1.54;100.00
16834;BME280;8533;48.426;10.868;2024-01-27T00:14:50;97697.13;;;1.49;100.00
16834;BME280;8533;48.426;10.868;2024-01-27T00:17:16;97680.28;;;1.37;100.00
16834;BME280;8533;48.426;10.868;2024-01-27T00:19:41;97637.16;;;1.03;100.00
16834;BME280;8533;48.426;10.868;2024-01-27T00:22:07;97641.28;;;0.96;100.00
16834;BME280;8533;48.426;10.868;2024-01-27T00:24:32;97610.59;;;0.67;100.00
16834;BME280;8533;48.426;10.868;2024-01-27T00:26:58;97692.66;;;1.15;100.00
16834;BME280;8533;48.426;10.868;2024-01-27T00:29:23;97673.16;;;0.95;100.00
16834;BME280;8533;48.426;10.868;2024-01-27T00:31:48;97722.31;;;1.02;100.00
16834;BME280;8533;48.426;10.868;2024-01-27T00:34:16;97710.84;;;0.96;100.00
16834;BME280;8533;48.426;10.868;2024-01-27T00:36:41;97668.84;;;0.68;100.00
16834;BME280;8533;48.426;10.868;2024-01-27T00:39:14;97718.13;;;1.01;100.00
16834;BME280;8533;48.426;10.868;2024-01-27T00:41:39;97692.41;;;0.91;100.00
16834;BME280;8533;48.426;10.868;2024-01-27T00:44:05;97637.16;;;0.68;100.00
16834;BME280;8533;48.426;10.868;2024-01-27T00:46:30;97688.16;;;1.00;100.00
16834;BME280;8533;48.426;10.868;2024-01-27T00:48:55;97706.81;;;1.11;100.00
16834;BME280;8533;48.426;10.868;2024-01-27T00:51:20;97619.34;;;0.57;100.00
16834;BME280;8533;48.426;10.868;2024-01-27T00:53:46;97714.38;;;1.13;100.00
16834;BME280;8533;48.426;10.868;2024-01-27T00:56:11;97500.91;;;-0.14;100.00
16834;BME280;8533;48.426;10.868;2024-01-27T00:58:36;97687.22;;;1.01;100.00
16834;BME280;8533;48.426;10.868;2024-01-27T01:01:02;97692.06;;;1.04;100.00
16834;BME280;8533;48.426;10.868;2024-01-27T01:03:27;97713.25;;;1.15;100.00
16834;BME280;8533;48.426;10.868;2024-01-27T01:05:52;97697.16;;;0.96;100.00
16834;BME280;8533;48.426;10.868;2024-01-27T01:08:18;97676.97;;;0.91;100.00
16834;BME280;8533;48.426;10.868;2024-01-27T01:10:43;97727.09;;;1.14;100.00
16834;BME280;8533;48.426;10.868;2024-01-27T01:13:27;97720.63;;;1.10;100.00
16834;BME280;8533;48.426;10.868;2024-01-27T01:15:53;97704.75;;;0.97;100.00
16834;BME280;8533;48.426;10.868;2024-01-27T01:18:18;97688.81;;;0.84;100.00
16834;BME280;8533;48.426;10.868;2024-01-27T01:20:43;97725.56;;;1.04;100.00
16834;BME280;8533;48.426;10.868;2024-01-27T01:23:08;97689.25;;;0.80;100.00
16834;BME280;8533;48.426;10.868;2024-01-27T01:25:34;97724.22;;;1.00;100.00
16834;BME280;8533;48.426;10.868;2024-01-27T01:27:59;97725.34;;;0.97;100.00
16834;BME280;8533;48.426;10.868;2024-01-27T01:30:24;97715.59;;;0.91;100.00
16834;BME280;8533;48.426;10.868;2024-01-27T01:32:50;97684.06;;;0.62;100.00
16834;BME280;8533;48.426;10.868;2024-01-27T01:35:15;97518.34;;;-0.35;100.00
16834;BME280;8533;48.426;10.868;2024-01-27T01:37:41;97670.03;;;0.56;100.00
16834;BME280;8533;48.426;10.868;2024-01-27T01:40:06;97714.34;;;0.77;100.00
16834;BME280;8533;48.426;10.868;2024-01-27T01:42:32;97670.56;;;0.50;100.00
16834;BME280;8533;48.426;10.868;2024-01-27T01:44:57;97673.88;;;0.43;100.00
16834;BME280;8533;48.426;10.868;2024-01-27T01:47:23;97743.84;;;0.83;100.00
16834;BME280;8533;48.426;10.868;2024-01-27T01:49:49;97703.09;;;0.51;100.00
16834;BME280;8533;48.426;10.868;2024-01-27T01:52:14;97752.16;;;0.77;100.00
16834;BME280;8533;48.426;10.868;2024-01-27T01:54:48;97641.31;;;-0.04;100.00
16834;BME280;8533;48.426;10.868;2024-01-27T01:57:13;97740.47;;;0.55;100.00
16834;BME280;8533;48.426;10.868;2024-01-27T01:59:39;97732.13;;;0.44;100.00
16834;BME280;8533;48.426;10.868;2024-01-27T02:02:06;97764.59;;;0.54;100.00
16834;BME280;8533;48.426;10.868;2024-01-27T02:04:39;97471.19;;;-1.37;100.00
16834;BME280;8533;48.426;10.868;2024-01-27T02:07:05;97715.69;;;0.17;100.00
16834;BME280;8533;48.426;10.868;2024-01-27T02:09:30;97677.88;;;-0.10;100.00
16834;BME280;8533;48.426;10.868;2024-01-27T02:11:55;97766.94;;;0.38;100.00
16834;BME280;8533;48.426;10.868;2024-01-27T02:14:21;97741.25;;;0.28;100.00
16834;BME280;8533;48.426;10.868;2024-01-27T02:16:50;97669.53;;;-0.21;100.00
16834;BME280;8533;48.426;10.868;2024-01-27T02:19:15;97535.88;;;-1.14;100.00
16834;BME280;8533;48.426;10.868;2024-01-27T02:21:40;97726.16;;;0.06;100.00
16834;BME280;8533;48.426;10.868;2024-01-27T02:24:08;97716.03;;;-0.05;100.00
16834;BME280;8533;48.426;10.868;2024-01-27T02:26:34;97743.88;;;0.09;100.00
16834;BME280;8533;48.426;10.868;2024-01-27T02:29:00;97740.66;;;0.07;100.00
16834;BME280;8533;48.426;10.868;2024-01-27T02:31:25;97719.84;;;-0.09;100.00
16834;BME280;8533;48.426;10.868;2024-01-27T02:33:50;97764.84;;;0.14;100.00
16834;BME280;8533;48.426;10.868;2024-01-27T02:36:15;97682.44;;;-0.50;100.00
16834;BME280;8533;48.426;10.868;2024-01-27T02:38:41;97744.63;;;-0.18;100.00
16834;BME280;8533;48.426;10.868;2024-01-27T02:41:06;97697.03;;;-0.51;100.00
16834;BME280;8533;48.426;10.868;2024-01-27T02:43:31;97783.44;;;-0.02;100.00
16834;BME280;8533;48.426;10.868;2024-01-27T02:45:56;97781.94;;;-0.04;100.00
16834;BME280;8533;48.426;10.868;2024-01-27T02:48:22;97711.78;;;-0.53;100.00
16834;BME280;8533;48.426;10.868;2024-01-27T02:50:47;97789.66;;;-0.04;100.00
16834;BME280;8533;48.426;10.868;2024-01-27T02:53:12;97790.47;;;-0.04;100.00
16834;BME280;8533;48.426;10.868;2024-01-27T02:55:38;97700.44;;;-0.50;100.00
16834;BME280;8533;48.426;10.868;2024-01-27T02:58:03;97715.84;;;-0.41;100.00
16834;BME280;8533;48.426;10.868;2024-01-27T03:00:28;97757.75;;;-0.21;100.00
16834;BME280;8533;48.426;10.868;2024-01-27T03:02:54;97768.00;;;-0.11;100.00
16834;BME280;8533;48.426;10.868;2024-01-27T03:05:22;97776.94;;;-0.06;100.00
16834;BME280;8533;48.426;10.868;2024-01-27T03:07:47;97781.00;;;-0.03;100.00
16834;BME280;8533;48.426;10.868;2024-01-27T03:10:12;97796.94;;;0.00;100.00
16834;BME280;8533;48.426;10.868;2024-01-27T03:12:38;97788.03;;;-0.05;100.00
16834;BME280;8533;48.426;10.868;2024-01-27T03:15:03;97730.97;;;-0.38;100.00
16834;BME280;8533;48.426;10.868;2024-01-27T03:17:28;97795.47;;;-0.02;100.00
16834;BME280;8533;48.426;10.868;2024-01-27T03:19:54;97814.56;;;0.05;100.00
16834;BME280;8533;48.426;10.868;2024-01-27T03:22:19;97764.94;;;-0.24;100.00
16834;BME280;8533;48.426;10.868;2024-01-27T03:24:44;97796.69;;;-0.06;100.00
16834;BME280;8533;48.426;10.868;2024-01-27T03:27:10;97760.72;;;-0.25;100.00
16834;BME280;8533;48.426;10.868;2024-01-27T03:29:35;97801.69;;;-0.05;100.00
16834;BME280;8533;48.426;10.868;2024-01-27T03:32:00;97821.31;;;0.06;100.00
16834;BME280;8533;48.426;10.868;2024-01-27T03:34:26;97754.34;;;-0.31;100.00
16834;BME280;8533;48.426;10.868;2024-01-27T03:36:52;97818.75;;;0.06;100.00
16834;BME280;8533;48.426;10.868;2024-01-27T03:39:17;97747.75;;;-0.43;100.00
16834;BME280;8533;48.426;10.868;2024-01-27T03:41:43;97809.41;;;-0.05;100.00
16834;BME280;8533;48.426;10.868;2024-01-27T03:44:08;97809.69;;;-0.08;100.00
16834;BME280;8533;48.426;10.868;2024-01-27T03:46:33;97769.94;;;-0.32;100.00
16834;BME280;8533;48.426;10.868;2024-01-27T03:48:59;97831.34;;;-0.01;100.00
16834;BME280;8533;48.426;10.868;2024-01-27T03:51:24;97792.91;;;-0.21;100.00
16834;BME280;8533;48.426;10.868;2024-01-27T03:53:51;97734.78;;;-0.61;100.00
16834;BME280;8533;48.426;10.868;2024-01-27T03:56:16;97824.44;;;-0.10;100.00
16834;BME280;8533;48.426;10.868;2024-01-27T03:58:41;97833.94;;;-0.10;100.00
16834;BME280;8533;48.426;10.868;2024-01-27T04:01:07;97828.09;;;-0.12;100.00
16834;BME280;8533;48.426;10.868;2024-01-27T04:03:32;97833.50;;;-0.15;100.00
16834;BME280;8533;48.426;10.868;2024-01-27T04:05:57;97626.78;;;-1.46;100.00
16834;BME280;8533;48.426;10.868;2024-01-27T04:08:23;97711.09;;;-0.93;100.00
16834;BME280;8533;48.426;10.868;2024-01-27T04:10:48;97807.38;;;-0.40;100.00
16834;BME280;8533;48.426;10.868;2024-01-27T04:13:13;97834.47;;;-0.26;100.00
16834;BME280;8533;48.426;10.868;2024-01-27T04:15:38;97609.59;;;-1.65;100.00
16834;BME280;8533;48.426;10.868;2024-01-27T04:18:07;97834.84;;;-0.30;100.00
16834;BME280;8533;48.426;10.868;2024-01-27T04:20:34;97782.25;;;-0.65;100.00
16834;BME280;8533;48.426;10.868;2024-01-27T04:22:59;97803.09;;;-0.49;100.00
16834;BME280;8533;48.426;10.868;2024-01-27T04:25:25;97602.28;;;-1.79;100.00
16834;BME280;8533;48.426;10.868;2024-01-27T04:27:50;97818.09;;;-0.44;100.00
16834;BME280;8533;48.426;10.868;2024-01-27T04:30:15;97820.25;;;-0.49;100.00
16834;BME280;8533;48.426;10.868;2024-01-27T04:32:40;97813.63;;;-0.52;100.00
16834;BME280;8533;48.426;10.868;2024-01-27T04:35:09;97837.00;;;-0.45;100.00
16834;BME280;8533;48.426;10.868;2024-01-27T04:37:35;97827.56;;;-0.45;100.00
16834;BME280;8533;48.426;10.868;2024-01-27T04:40:00;97732.44;;;-1.02;100.00
16834;BME280;8533;48.426;10.868;2024-01-27T04:42:26;97828.91;;;-0.41;100.00
16834;BME280;8533;48.426;10.868;2024-01-27T04:44:53;97810.78;;;-0.49;100.00
16834;BME280;8533;48.426;10.868;2024-01-27T04:47:18;97745.84;;;-0.89;100.00
16834;BME280;8533;48.426;10.868;2024-01-27T04:49:43;97814.97;;;-0.48;100.00
16834;BME280;8533;48.426;10.868;2024-01-27T04:52:09;97834.06;;;-0.41;100.00
16834;BME280;8533;48.426;10.868;2024-01-27T04:54:34;97812.25;;;-0.56;100.00
16834;BME280;8533;48.426;10.868;2024-01-27T04:56:59;97767.75;;;-0.85;100.00
16834;BME280;8533;48.426;10.868;2024-01-27T04:59:24;97826.47;;;-0.52;100.00
16834;BME280;8533;48.426;10.868;2024-01-27T05:01:50;97836.75;;;-0.52;100.00
16834;BME280;8533;48.426;10.868;2024-01-27T05:04:16;97846.63;;;-0.57;100.00
16834;BME280;8533;48.426;10.868;2024-01-27T05:06:44;97847.03;;;-0.52;100.00
16834;BME280;8533;48.426;10.868;2024-01-27T05:09:12;97779.34;;;-1.00;100.00
16834;BME280;8533;48.426;10.868;2024-01-27T05:11:38;97854.31;;;-0.57;100.00
16834;BME280;8533;48.426;10.868;2024-01-27T05:14:03;97810.47;;;-0.84;100.00
16834;BME280;8533;48.426;10.868;2024-01-27T05:16:28;97831.97;;;-0.75;100.00
16834;BME280;8533;48.426;10.868;2024-01-27T05:18:54;97788.75;;;-1.10;100.00
16834;BME280;8533;48.426;10.868;2024-01-27T05:21:19;97808.94;;;-0.96;100.00
16834;BME280;8533;48.426;10.868;2024-01-27T05:23:45;97806.09;;;-1.03;100.00
16834;BME280;8533;48.426;10.868;2024-01-27T05:26:10;97825.59;;;-0.91;100.00
16834;BME280;8533;48.426;10.868;2024-01-27T05:28:39;97847.91;;;-0.82;100.00
16834;BME280;8533;48.426;10.868;2024-01-27T05:31:07;97831.53;;;-0.90;100.00
16834;BME280;8533;48.426;10.868;2024-01-27T05:33:36;97827.44;;;-1.02;100.00
16834;BME280;8533;48.426;10.868;2024-01-27T05:36:01;97833.13;;;-0.99;100.00
16834;BME280;8533;48.426;10.868;2024-01-27T05:38:27;97778.97;;;-1.36;100.00
16834;BME280;8533;48.426;10.868;2024-01-27T05:40:55;97771.09;;;-1.44;100.00
16834;BME280;8533;48.426;10.868;2024-01-27T05:43:20;97850.00;;;-0.96;100.00
16834;BME280;8533;48.426;10.868;2024-01-27T05:45:46;97814.56;;;-1.22;100.00
16834;BME280;8533;48.426;10.868;2024-01-27T05:48:11;97850.81;;;-1.05;100.00
16834;BME280;8533;48.426;10.868;2024-01-27T05:50:36;97872.63;;;-0.90;100.00
16834;BME280;8533;48.426;10.868;2024-01-27T05:53:02;97880.34;;;-0.90;100.00
16834;BME280;8533;48.426;10.868;2024-01-27T05:55:27;97857.84;;;-1.07;100.00
16834;BME280;8533;48.426;10.868;2024-01-27T05:57:53;97871.91;;;-1.02;100.00
16834;BME280;8533;48.426;10.868;2024-01-27T06:00:20;97888.53;;;-0.96;100.00
16834;BME280;8533;48.426;10.868;2024-01-27T06:02:45;97866.31;;;-1.17;100.00
16834;BME280;8533;48.426;10.868;2024-01-27T06:05:10;97858.31;;;-1.23;100.00
16834;BME280;8533;48.426;10.868;2024-01-27T06:07:38;97971.91;;;-1.00;100.00
16834;BME280;8533;48.426;10.868;2024-01-27T06:10:04;97865.72;;;-1.20;100.00
16834;BME280;8533;48.426;10.868;2024-01-27T06:12:29;97839.59;;;-1.35;100.00
16834;BME280;8533;48.426;10.868;2024-01-27T06:14:55;97904.22;;;-0.99;100.00
16834;BME280;8533;48.426;10.868;2024-01-27T06:17:22;97879.25;;;-1.18;100.00
16834;BME280;8533;48.426;10.868;2024-01-27T06:19:48;97892.38;;;-1.11;100.00
16834;BME280;8533;48.426;10.868;2024-01-27T06:22:13;97889.00;;;-1.12;100.00
16834;BME280;8533;48.426;10.868;2024-01-27T06:24:42;97908.78;;;-1.03;100.00
16834;BME280;8533;48.426;10.868;2024-01-27T06:27:08;97907.97;;;-1.03;100.00
16834;BME280;8533;48.426;10.868;2024-01-27T06:29:34;97677.91;;;-2.45;100.00
16834;BME280;8533;48.426;10.868;2024-01-27T06:31:59;97815.31;;;-1.61;100.00
16834;BME280;8533;48.426;10.868;2024-01-27T06:34:24;97690.78;;;-2.36;100.00
16834;BME280;8533;48.426;10.868;2024-01-27T06:36:49;97912.97;;;-1.02;100.00
16834;BME280;8533;48.426;10.868;2024-01-27T06:39:15;97891.03;;;-1.16;100.00
16834;BME280;8533;48.426;10.868;2024-01-27T06:41:40;97912.28;;;-1.04;100.00
16834;BME280;8533;48.426;10.868;2024-01-27T06:44:05;97851.31;;;-1.42;100.00
16834;BME280;8533;48.426;10.868;2024-01-27T06:46:31;97859.97;;;-1.43;100.00
16834;BME280;8533;48.426;10.868;2024-01-27T06:48:56;97920.25;;;-1.07;100.00
16834;BME280;8533;48.426;10.868;2024-01-27T06:51:22;97884.47;;;-1.29;100.00
16834;BME280;8533;48.426;10.868;2024-01-27T06:53:47;97930.66;;;-1.08;100.00
16834;BME280;8533;48.426;10.868;2024-01-27T06:56:13;97715.94;;;-2.41;100.00
16834;BME280;8533;48.426;10.868;2024-01-27T06:58:39;97913.31;;;-1.16;100.00
16834;BME280;8533;48.426;10.868;2024-01-27T07:01:06;98038.47;;;-1.08;100.00
16834;BME280;8533;48.426;10.868;2024-01-27T07:03:32;97922.78;;;-1.17;100.00
16834;BME280;8533;48.426;10.868;2024-01-27T07:05:57;97926.06;;;-1.05;100.00
16834;BME280;8533;48.426;10.868;2024-01-27T07:08:26;97923.66;;;-0.97;100.00
16834;BME280;8533;48.426;10.868;2024-01-27T07:10:51;97921.66;;;-0.93;100.00
16834;BME280;8533;48.426;10.868;2024-01-27T07:13:16;97924.81;;;-0.90;100.00
16834;BME280;8533;48.426;10.868;2024-01-27T07:15:42;97951.03;;;-0.86;100.00
16834;BME280;8533;48.426;10.868;2024-01-27T07:18:07;97867.88;;;-1.25;100.00
16834;BME280;8533;48.426;10.868;2024-01-27T07:20:33;97924.00;;;-0.90;100.00
16834;BME280;8533;48.426;10.868;2024-01-27T07:22:59;97947.94;;;-0.80;100.00
16834;BME280;8533;48.426;10.868;2024-01-27T07:25:24;97916.53;;;-0.93;100.00
16834;BME280;8533;48.426;10.868;2024-01-27T07:27:49;97889.34;;;-1.05;100.00
16834;BME280;8533;48.426;10.868;2024-01-27T07:30:14;97847.22;;;-1.24;100.00
16834;BME280;8533;48.426;10.868;2024-01-27T07:32:40;97820.81;;;-1.35;100.00
16834;BME280;8533;48.426;10.868;2024-01-27T07:35:06;97930.28;;;-0.64;100.00
16834;BME280;8533;48.426;10.868;2024-01-27T07:37:31;97915.41;;;-0.70;100.00
16834;BME280;8533;48.426;10.868;2024-01-27T07:39:57;97903.78;;;-0.74;100.00
16834;BME280;8533;48.426;10.868;2024-01-27T07:42:22;97922.16;;;-0.69;100.00
16834;BME280;8533;48.426;10.868;2024-01-27T07:44:47;97854.31;;;-1.06;100.00
16834;BME280;8533;48.426;10.868;2024-01-27T07:47:14;97933.00;;;-0.56;100.00
16834;BME280;8533;48.426;10.868;2024-01-27T07:49:39;97923.25;;;-0.62;100.00
16834;BME280;8533;48.426;10.868;2024-01-27T07:52:05;97890.38;;;-0.78;100.00
16834;BME280;8533;48.426;10.868;2024-01-27T07:54:31;97929.50;;;-0.55;100.00
16834;BME280;8533;48.426;10.868;2024-01-27T07:56:58;97870.22;;;-0.82;100.00
16834;BME280;8533;48.426;10.868;2024-01-27T07:59:24;97961.59;;;-0.40;100.00
16834;BME280;8533;48.426;10.868;2024-01-27T08:01:49;97783.59;;;-1.30;100.00
16834;BME280;8533;48.426;10.868;2024-01-27T08:04:14;97920.34;;;-0.38;100.00
16834;BME280;8533;48.426;10.868;2024-01-27T08:06:48;97877.69;;;-0.60;100.00
16834;BME280;8533;48.426;10.868;2024-01-27T08:09:14;97939.06;;;-0.26;100.00
16834;BME280;8533;48.426;10.868;2024-01-27T08:11:39;97931.75;;;-0.21;100.00
16834;BME280;8533;48.426;10.868;2024-01-27T08:14:04;97938.41;;;-0.09;100.00
16834;BME280;8533;48.426;10.868;2024-01-27T08:16:29;97903.47;;;-0.21;100.00
16834;BME280;8533;48.426;10.868;2024-01-27T08:18:55;97912.25;;;-0.14;100.00
16834;BME280;8533;48.426;10.868;2024-01-27T08:21:20;97914.16;;;-0.07;100.00
16834;BME280;8533;48.426;10.868;2024-01-27T08:23:46;97919.72;;;-0.02;100.00
16834;BME280;8533;48.426;10.868;2024-01-27T08:26:11;97885.75;;;-0.15;100.00
16834;BME280;8533;48.426;10.868;2024-01-27T08:28:36;97831.34;;;-0.39;100.00
16834;BME280;8533;48.426;10.868;2024-01-27T08:31:02;97928.25;;;0.28;100.00
16834;BME280;8533;48.426;10.868;2024-01-27T08:33:27;97942.47;;;0.42;100.00
16834;BME280;8533;48.426;10.868;2024-01-27T08:35:53;97978.09;;;0.56;100.00
16834;BME280;8533;48.426;10.868;2024-01-27T08:38:18;97717.31;;;-0.86;100.00
16834;BME280;8533;48.426;10.868;2024-01-27T08:40:43;97866.25;;;0.12;100.00
16834;BME280;8533;48.426;10.868;2024-01-27T08:43:09;97968.44;;;0.77;100.00
16834;BME280;8533;48.426;10.868;2024-01-27T08:45:36;97922.81;;;0.60;100.00
16834;BME280;8533;48.426;10.868;2024-01-27T08:48:02;97943.50;;;0.77;100.00
16834;BME280;8533;48.426;10.868;2024-01-27T08:50:27;97965.84;;;0.96;100.00
16834;BME280;8533;48.426;10.868;2024-01-27T08:52:52;97975.31;;;1.05;100.00
16834;BME280;8533;48.426;10.868;2024-01-27T08:55:18;97966.78;;;1.05;100.00
16834;BME280;8533;48.426;10.868;2024-01-27T08:57:47;97997.22;;;1.29;100.00
16834;BME280;8533;48.426;10.868;2024-01-27T09:00:12;97995.25;;;1.40;100.00
16834;BME280;8533;48.426;10.868;2024-01-27T09:02:38;97973.84;;;1.30;100.00
16834;BME280;8533;48.426;10.868;2024-01-27T09:05:04;97964.63;;;1.37;100.00
16834;BME280;8533;48.426;10.868;2024-01-27T09:07:30;97941.16;;;1.31;100.00
16834;BME280;8533;48.426;10.868;2024-01-27T09:09:55;97964.84;;;1.53;100.00
16834;BME280;8533;48.426;10.868;2024-01-27T09:12:20;98002.91;;;1.87;100.00
16834;BME280;8533;48.426;10.868;2024-01-27T09:14:46;97970.41;;;1.76;100.00
16834;BME280;8533;48.426;10.868;2024-01-27T09:17:12;97965.75;;;1.80;100.00
16834;BME280;8533;48.426;10.868;2024-01-27T09:19:37;97971.53;;;1.91;100.00
16834;BME280;8533;48.426;10.868;2024-01-27T09:22:03;98011.91;;;2.28;100.00
16834;BME280;8533;48.426;10.868;2024-01-27T09:24:28;98003.06;;;2.30;100.00
16834;BME280;8533;48.426;10.868;2024-01-27T09:26:53;98022.63;;;2.51;100.00
16834;BME280;8533;48.426;10.868;2024-01-27T09:29:19;98004.19;;;2.46;100.00
16834;BME280;8533;48.426;10.868;2024-01-27T09:31:45;98000.63;;;2.47;100.00
16834;BME280;8533;48.426;10.868;2024-01-27T09:34:10;98011.13;;;2.63;100.00
16834;BME280;8533;48.426;10.868;2024-01-27T09:36:36;98023.94;;;2.90;100.00
16834;BME280;8533;48.426;10.868;2024-01-27T09:39:01;97958.16;;;2.59;100.00
16834;BME280;8533;48.426;10.868;2024-01-27T09:41:30;97978.69;;;2.86;100.00
16834;BME280;8533;48.426;10.868;2024-01-27T09:44:00;98007.41;;;3.09;100.00
16834;BME280;8533;48.426;10.868;2024-01-27T09:46:26;98021.22;;;3.18;100.00
16834;BME280;8533;48.426;10.868;2024-01-27T09:48:52;98005.22;;;3.14;100.00
16834;BME280;8533;48.426;10.868;2024-01-27T09:51:18;98040.94;;;3.44;100.00
16834;BME280;8533;48.426;10.868;2024-01-27T09:53:44;97961.09;;;2.90;100.00
16834;BME280;8533;48.426;10.868;2024-01-27T09:56:10;98046.16;;;3.53;100.00
16834;BME280;8533;48.426;10.868;2024-01-27T09:58:37;98022.84;;;3.44;100.00
16834;BME280;8533;48.426;10.868;2024-01-27T10:01:02;98033.28;;;3.61;100.00
16834;BME280;8533;48.426;10.868;2024-01-27T10:03:29;98043.81;;;3.67;100.00
16834;BME280;8533;48.426;10.868;2024-01-27T10:05:56;98043.63;;;3.61;100.00
16834;BME280;8533;48.426;10.868;2024-01-27T10:08:22;98023.56;;;3.55;100.00
16834;BME280;8533;48.426;10.868;2024-01-27T10:10:53;98014.47;;;3.51;100.00
16834;BME280;8533;48.426;10.868;2024-01-27T10:13:19;98027.47;;;3.67;100.00
16834;BME280;8533;48.426;10.868;2024-01-27T10:16:08;98038.16;;;3.64;100.00
16834;BME280;8533;48.426;10.868;2024-01-27T10:18:34;98035.38;;;3.65;100.00
16834;BME280;8533;48.426;10.868;2024-01-27T10:21:00;98032.47;;;3.60;100.00
16834;BME280;8533;48.426;10.868;2024-01-27T10:23:39;97995.63;;;3.32;100.00
16834;BME280;8533;48.426;10.868;2024-01-27T10:26:04;97722.09;;;1.66;100.00
16834;BME280;8533;48.426;10.868;2024-01-27T10:28:30;97998.41;;;3.39;100.00
16834;BME280;8533;48.426;10.868;2024-01-27T10:31:15;98023.50;;;3.47;100.00
16834;BME280;8533;48.426;10.868;2024-01-27T10:33:51;98028.41;;;3.58;100.00
16834;BME280;8533;48.426;10.868;2024-01-27T10:36:17;98031.66;;;3.60;100.00
16834;BME280;8533;48.426;10.868;2024-01-27T10:38:42;97916.47;;;2.80;100.00
16834;BME280;8533;48.426;10.868;2024-01-27T10:41:09;98037.16;;;3.57;100.00
16834;BME280;8533;48.426;10.868;2024-01-27T10:43:38;98040.84;;;3.54;100.00
16834;BME280;8533;48.426;10.868;2024-01-27T10:46:08;98042.47;;;3.55;100.00
16834;BME280;8533;48.426;10.868;2024-01-27T10:48:34;98038.06;;;3.48;100.00
16834;BME280;8533;48.426;10.868;2024-01-27T10:51:07;97969.31;;;3.11;100.00
16834;BME280;8533;48.426;10.868;2024-01-27T10:53:33;98009.88;;;3.36;100.00
16834;BME280;8533;48.426;10.868;2024-01-27T10:56:01;98002.25;;;3.35;100.00
16834;BME280;8533;48.426;10.868;2024-01-27T10:58:29;98023.66;;;3.45;100.00
16834;BME280;8533;48.426;10.868;2024-01-27T11:00:56;98027.09;;;3.54;100.00
16834;BME280;8533;48.426;10.868;2024-01-27T11:03:22;97972.47;;;3.23;100.00
16834;BME280;8533;48.426;10.868;2024-01-27T11:05:49;98018.28;;;3.64;100.00
16834;BME280;8533;48.426;10.868;2024-01-27T11:08:16;97965.56;;;3.31;100.00
16834;BME280;8533;48.426;10.868;2024-01-27T11:10:43;97973.75;;;3.53;100.00
16834;BME280;8533;48.426;10.868;2024-01-27T11:13:09;97965.69;;;3.56;100.00
16834;BME280;8533;48.426;10.868;2024-01-27T11:15:34;97985.78;;;3.70;100.00
16834;BME280;8533;48.426;10.868;2024-01-27T11:18:00;98011.56;;;3.88;100.00
16834;BME280;8533;48.426;10.868;2024-01-27T11:20:27;97998.28;;;3.82;100.00
16834;BME280;8533;48.426;10.868;2024-01-27T11:22:52;98010.91;;;3.86;100.00
16834;BME280;8533;48.426;10.868;2024-01-27T11:25:19;98011.81;;;3.68;100.00
16834;BME280;8533;48.426;10.868;2024-01-27T11:27:46;98015.81;;;3.97;100.00
16834;BME280;8533;48.426;10.868;2024-01-27T11:30:30;98063.47;;;3.86;100.00
16834;BME280;8533;48.426;10.868;2024-01-27T11:33:01;98013.53;;;3.94;100.00
16834;BME280;8533;48.426;10.868;2024-01-27T11:35:27;97974.00;;;3.75;100.00
16834;BME280;8533;48.426;10.868;2024-01-27T11:37:53;98007.22;;;3.96;100.00
16834;BME280;8533;48.426;10.868;2024-01-27T11:40:19;98014.69;;;4.07;100.00
16834;BME280;8533;48.426;10.868;2024-01-27T11:42:56;97721.19;;;2.27;100.00
16834;BME280;8533;48.426;10.868;2024-01-27T11:45:22;97989.94;;;3.97;100.00
16834;BME280;8533;48.426;10.868;2024-01-27T11:47:47;97987.19;;;4.06;100.00
16834;BME280;8533;48.426;10.868;2024-01-27T11:50:12;98014.09;;;4.13;100.00
16834;BME280;8533;48.426;10.868;2024-01-27T11:52:38;98002.25;;;4.11;100.00
16834;BME280;8533;48.426;10.868;2024-01-27T11:55:03;97987.00;;;4.00;100.00
16834;BME280;8533;48.426;10.868;2024-01-27T11:57:29;98000.31;;;4.13;100.00
16834;BME280;8533;48.426;10.868;2024-01-27T11:59:54;98003.91;;;4.20;100.00
16834;BME280;8533;48.426;10.868;2024-01-27T12:02:20;97996.97;;;4.29;100.00
16834;BME280;8533;48.426;10.868;2024-01-27T12:04:47;97996.00;;;4.38;100.00
16834;BME280;8533;48.426;10.868;2024-01-27T12:07:13;97936.00;;;3.84;100.00
16834;BME280;8533;48.426;10.868;2024-01-27T12:09:39;97963.75;;;4.32;100.00
16834;BME280;8533;48.426;10.868;2024-01-27T12:12:04;97965.56;;;4.40;100.00
16834;BME280;8533;48.426;10.868;2024-01-27T12:14:40;97980.16;;;4.57;100.00
16834;BME280;8533;48.426;10.868;2024-01-27T12:17:08;97991.00;;;4.52;100.00
16834;BME280;8533;48.426;10.868;2024-01-27T12:19:33;97938.84;;;4.47;100.00
16834;BME280;8533;48.426;10.868;2024-01-27T12:21:59;97890.94;;;4.19;100.00
16834;BME280;8533;48.426;10.868;2024-01-27T12:24:24;97977.56;;;4.81;100.00
16834;BME280;8533;48.426;10.868;2024-01-27T12:26:49;97886.56;;;4.36;100.00
16834;BME280;8533;48.426;10.868;2024-01-27T12:29:14;97946.44;;;4.81;100.00
16834;BME280;8533;48.426;10.868;2024-01-27T12:31:40;97974.94;;;4.89;100.00
16834;BME280;8533;48.426;10.868;2024-01-27T12:34:07;97962.16;;;4.88;100.00
16834;BME280;8533;48.426;10.868;2024-01-27T12:36:32;97974.50;;;4.86;100.00
16834;BME280;8533;48.426;10.868;2024-01-27T12:38:59;97969.94;;;4.72;100.00
16834;BME280;8533;48.426;10.868;2024-01-27T12:41:28;97979.81;;;5.01;100.00
16834;BME280;8533;48.426;10.868;2024-01-27T12:43:55;97972.31;;;5.14;100.00
16834;BME280;8533;48.426;10.868;2024-01-27T12:46:21;97958.38;;;5.23;100.00
16834;BME280;8533;48.426;10.868;2024-01-27T12:48:46;97889.53;;;4.96;100.00